createdAt,value
2023-12-11T00:01:04.423Z,66.6
2023-12-11T00:04:04.110Z,66.75
2023-12-11T00:07:03.664Z,66.89
2023-12-11T00:09:03.910Z,66.08
2023-12-11T00:11:04.447Z,66.8
2023-12-11T00:14:03.642Z,66.66
2023-12-11T00:17:05.325Z,64.6
2023-12-11T00:20:03.563Z,65.03
2023-12-11T00:22:03.622Z,65.59
2023-12-11T00:25:03.643Z,64.67
2023-12-11T00:27:03.605Z,65.55
2023-12-11T00:29:03.824Z,65.71
2023-12-11T00:32:03.834Z,64.87
2023-12-11T00:34:04.076Z,65.18
2023-12-11T00:36:04.472Z,64.85
2023-12-11T00:39:03.873Z,65.41
2023-12-11T00:42:03.657Z,66.01
2023-12-11T00:45:04.565Z,66.04
2023-12-11T00:48:04.131Z,66.31
2023-12-11T00:51:03.594Z,65.59
2023-12-11T00:53:03.681Z,65.54
2023-12-11T00:55:03.775Z,66.23
2023-12-11T00:58:03.613Z,66.12
2023-12-11T01:00:03.591Z,65.98
2023-12-11T01:02:03.627Z,65.92
2023-12-11T01:04:04.207Z,66.31
2023-12-11T01:07:03.687Z,66.69
2023-12-11T01:10:03.602Z,66.53
2023-12-11T01:12:04.205Z,66.08
2023-12-11T01:15:03.584Z,65.12
2023-12-11T01:17:35.106Z,64.33
2023-12-11T01:19:04.494Z,65.09
2023-12-11T01:22:03.988Z,64.53
2023-12-11T01:25:03.929Z,64.94
2023-12-11T01:27:04.010Z,64.86
2023-12-11T01:30:03.870Z,65.37
2023-12-11T01:33:03.751Z,65.32
2023-12-11T01:35:03.942Z,65.3
2023-12-11T01:37:04.070Z,65.18
2023-12-11T01:39:04.524Z,65.51
2023-12-11T01:42:03.600Z,64.99
2023-12-11T01:44:04.395Z,65.43
2023-12-11T01:47:03.967Z,65.84
2023-12-11T01:49:04.226Z,65.82
2023-12-11T01:52:03.658Z,65.46
2023-12-11T01:54:04.201Z,65.81
2023-12-11T01:57:03.621Z,65.42
2023-12-11T01:59:04.128Z,65.22
2023-12-11T02:02:04.192Z,65.21
2023-12-11T02:04:04.577Z,65.62
2023-12-11T02:07:04.273Z,65.05
2023-12-11T02:09:04.461Z,64.58
2023-12-11T02:12:03.897Z,63.66
2023-12-11T02:15:04.001Z,63.36
2023-12-11T02:18:03.683Z,63.88
2023-12-11T02:20:04.369Z,63.74
2023-12-11T02:23:03.848Z,63.92
2023-12-11T02:26:03.620Z,64.09
2023-12-11T02:28:04.415Z,63.63
2023-12-11T02:31:03.662Z,64.17
2023-12-11T02:34:03.653Z,63.74
2023-12-11T02:36:03.613Z,64.13
2023-12-11T02:38:04.091Z,64.1
2023-12-11T02:41:04.590Z,63.81
2023-12-11T02:44:03.622Z,63.43
2023-12-11T02:46:04.135Z,63.64
2023-12-11T02:48:04.625Z,63.96
2023-12-11T02:51:04.261Z,63.55
2023-12-11T02:54:03.751Z,64.15
2023-12-11T02:56:04.229Z,63.71
2023-12-11T02:59:03.617Z,63.53
2023-12-11T03:01:04.160Z,63.71
2023-12-11T03:04:04.187Z,63.14
2023-12-11T03:07:03.643Z,62.9
2023-12-11T03:09:04.413Z,63.04
2023-12-11T03:12:03.619Z,63.04
2023-12-11T03:14:03.686Z,63.56
2023-12-11T03:17:03.835Z,63.7
2023-12-11T03:20:03.622Z,63.89
2023-12-11T03:22:03.752Z,63.89
2023-12-11T03:24:04.349Z,64.03
2023-12-11T03:26:04.501Z,64.11
2023-12-11T03:29:04.353Z,64.3
2023-12-11T03:32:04.261Z,64.66
2023-12-11T03:35:03.602Z,64.25
2023-12-11T03:38:03.626Z,64.91
2023-12-11T03:41:03.623Z,64.77
2023-12-11T03:43:03.638Z,65.14
2023-12-11T03:45:04.368Z,65.27
2023-12-11T03:48:04.129Z,64.82
2023-12-11T03:51:04.032Z,64.06
2023-12-11T03:54:03.681Z,64.39
2023-12-11T03:56:04.311Z,63.64
2023-12-11T03:59:03.964Z,63.36
2023-12-11T04:02:04.497Z,63.38
2023-12-11T04:05:03.722Z,63.81
2023-12-11T04:07:03.741Z,63.96
2023-12-11T04:10:03.668Z,64.54
2023-12-11T04:12:04.113Z,64.38
2023-12-11T04:15:03.632Z,64.91
2023-12-11T04:17:03.635Z,65.23
2023-12-11T04:19:03.729Z,65.32
2023-12-11T04:22:03.685Z,65.13
2023-12-11T04:24:04.359Z,65.3
2023-12-11T04:27:04.104Z,65.68
2023-12-11T04:30:04.134Z,65.19
2023-12-11T04:33:03.696Z,65.59
2023-12-11T04:35:04.306Z,65.46
2023-12-11T04:38:04.051Z,65.4
2023-12-11T04:41:04.357Z,65.04
2023-12-11T04:44:03.596Z,64.82
2023-12-11T04:46:03.690Z,64.26
2023-12-11T04:48:04.365Z,63.62
2023-12-11T04:51:03.646Z,63.9
2023-12-11T04:54:03.650Z,63.94
2023-12-11T04:57:03.766Z,64.05
2023-12-11T04:59:04.115Z,63.99
2023-12-11T05:02:03.598Z,64.42
2023-12-11T05:04:03.602Z,64.5
2023-12-11T05:07:03.679Z,63.88
2023-12-11T05:09:03.634Z,63.36
2023-12-11T05:11:03.873Z,63.8
2023-12-11T05:13:04.254Z,63.9
2023-12-11T05:16:03.607Z,63.84
2023-12-11T05:18:03.686Z,64
2023-12-11T05:21:03.630Z,63.39
2023-12-11T05:24:04.422Z,63.28
2023-12-11T05:27:03.749Z,63.45
2023-12-11T05:30:04.402Z,63.06
2023-12-11T05:33:03.662Z,63.44
2023-12-11T05:35:04.002Z,63.37
2023-12-11T05:38:03.591Z,63.3
2023-12-11T05:40:20.009Z,62.95
2023-12-11T05:43:03.638Z,62.51
2023-12-11T05:45:04.175Z,62.22
2023-12-11T05:48:03.706Z,61.24
2023-12-11T05:50:03.961Z,61.59
2023-12-11T05:52:04.601Z,61.41
2023-12-11T05:55:03.817Z,62.07
2023-12-11T05:57:03.955Z,61.88
2023-12-11T06:00:04.121Z,62.26
2023-12-11T06:03:03.633Z,62.52
2023-12-11T06:05:03.653Z,62.64
2023-12-11T06:08:03.666Z,62.38
2023-12-11T06:10:04.086Z,62.72
2023-12-11T06:13:03.634Z,62.83
2023-12-11T06:16:04.516Z,63.08
2023-12-11T06:19:03.686Z,63.11
2023-12-11T06:21:04.599Z,62.79
2023-12-11T06:24:04.047Z,62.91
2023-12-11T06:27:04.124Z,62.9
2023-12-11T06:30:03.592Z,63.12
2023-12-11T06:32:04.098Z,62.72
2023-12-11T06:34:04.296Z,62.6
2023-12-11T06:37:03.753Z,62.02
2023-12-11T06:39:04.566Z,62.09
2023-12-11T06:42:03.751Z,60.99
2023-12-11T06:45:04.075Z,61.49
2023-12-11T06:48:03.601Z,61.05
2023-12-11T06:50:03.808Z,61.38
2023-12-11T06:52:03.654Z,61.62
2023-12-11T06:54:04.094Z,61.83
2023-12-11T06:57:03.609Z,62.16
2023-12-11T06:59:03.941Z,62.06
2023-12-11T07:02:03.790Z,62.11
2023-12-11T07:04:04.162Z,62.37
2023-12-11T07:07:03.625Z,62.48
2023-12-11T07:09:03.686Z,62.61
2023-12-11T07:11:03.758Z,62.52
2023-12-11T07:13:03.810Z,62.57
2023-12-11T07:16:03.641Z,62.87
2023-12-11T07:18:03.690Z,62.8
2023-12-11T07:20:03.686Z,62.97
2023-12-11T07:22:03.892Z,63.01
2023-12-11T07:24:04.048Z,63.31
2023-12-11T07:27:03.864Z,62.81
2023-12-11T07:29:04.398Z,62.82
2023-12-11T07:32:03.637Z,62.68
2023-12-11T07:34:03.904Z,62.96
2023-12-11T07:37:03.977Z,62.22
2023-12-11T07:40:04.380Z,61.66
2023-12-11T07:43:03.667Z,61.59
2023-12-11T07:45:03.694Z,61.61
2023-12-11T07:47:03.938Z,61.81
2023-12-11T07:50:04.240Z,61.76
2023-12-11T07:53:03.627Z,61.83
2023-12-11T07:55:04.494Z,61.94
2023-12-11T07:58:03.818Z,62.24
2023-12-11T08:00:04.302Z,61.91
2023-12-11T08:03:03.602Z,62.18
2023-12-11T08:05:03.778Z,62.27
2023-12-11T08:08:03.615Z,61.77
2023-12-11T08:10:04.026Z,61.99
2023-12-11T08:12:04.364Z,62.43
2023-12-11T08:15:04.579Z,62.15
2023-12-11T08:18:03.645Z,61.9
2023-12-11T08:20:03.778Z,62.15
2023-12-11T08:22:04.015Z,62.31
2023-12-11T08:25:03.675Z,62.16
2023-12-11T08:27:03.862Z,62.61
2023-12-11T08:30:03.692Z,62.78
2023-12-11T08:33:04.161Z,62.92
2023-12-11T08:36:03.621Z,62.92
2023-12-11T08:38:03.983Z,62.55
2023-12-11T08:41:03.629Z,62.38
2023-12-11T08:43:04.276Z,62.11
2023-12-11T08:46:03.638Z,62.07
2023-12-11T08:48:04.914Z,61.72
2023-12-11T08:51:03.661Z,61.44
2023-12-11T08:53:03.874Z,61.41
2023-12-11T08:56:03.941Z,61.43
2023-12-11T08:59:03.608Z,61.32
2023-12-11T09:01:03.686Z,61.04
2023-12-11T09:04:03.671Z,61.14
2023-12-11T09:07:03.735Z,61.39
2023-12-11T09:10:04.552Z,61.05
2023-12-11T09:13:03.608Z,60.65
2023-12-11T09:15:03.822Z,60.7
2023-12-11T09:18:03.643Z,60.64
2023-12-11T09:20:03.790Z,60.45
2023-12-11T09:22:03.722Z,60.3
2023-12-11T09:25:03.730Z,60.39
2023-12-11T09:27:03.751Z,60.25
2023-12-11T09:29:04.267Z,60.35
2023-12-11T09:32:03.704Z,59.93
2023-12-11T09:35:04.039Z,59.93
2023-12-11T09:38:04.257Z,59.97
2023-12-11T09:40:04.488Z,60.12
2023-12-11T09:43:03.621Z,59.65
2023-12-11T09:45:04.064Z,60.01
2023-12-11T09:48:07.997Z,59.07
2023-12-11T09:51:04.384Z,58.86
2023-12-11T09:54:03.622Z,59.07
2023-12-11T09:56:04.319Z,58.97
2023-12-11T09:59:03.595Z,58.69
2023-12-11T10:01:03.724Z,58.25
2023-12-11T10:03:03.816Z,58.2
2023-12-11T10:06:04.283Z,58.46
2023-12-11T10:09:03.610Z,57.33
2023-12-11T10:11:03.879Z,57.31
2023-12-11T10:14:03.634Z,57.1
2023-12-11T10:17:04.637Z,57.21
2023-12-11T10:20:03.788Z,57.05
2023-12-11T10:22:03.674Z,56.74
2023-12-11T10:25:04.511Z,56.36
2023-12-11T10:28:03.793Z,55.85
2023-12-11T10:31:04.185Z,55.54
2023-12-11T10:34:04.010Z,55.67
2023-12-11T10:37:03.694Z,56.01
2023-12-11T10:40:03.980Z,55.86
2023-12-11T10:42:04.520Z,55.68
2023-12-11T10:45:04.241Z,55.16
2023-12-11T10:47:04.351Z,55.02
2023-12-11T10:50:04.414Z,54.82
2023-12-11T10:53:03.956Z,55.01
2023-12-11T10:55:04.401Z,54.83
2023-12-11T10:59:03.967Z,55.03
2023-12-11T11:02:03.708Z,54.15
2023-12-11T11:04:04.430Z,53.94
2023-12-11T11:07:03.705Z,53.37
2023-12-11T11:09:04.048Z,53.27
2023-12-11T11:12:03.644Z,52.88
2023-12-11T11:15:04.111Z,53.41
2023-12-11T11:18:03.915Z,52.67
2023-12-11T11:20:03.835Z,52.42
2023-12-11T11:23:04.445Z,51.35
2023-12-11T11:26:03.847Z,51.48
2023-12-11T11:29:04.366Z,51.16
2023-12-11T11:31:05.777Z,51.07
2023-12-11T11:34:03.744Z,50.69
2023-12-11T11:37:03.629Z,50.74
2023-12-11T11:39:03.686Z,50.13
2023-12-11T11:41:04.254Z,49.88
2023-12-11T11:43:04.650Z,49.37
2023-12-11T11:46:03.676Z,48.95
2023-12-11T11:49:04.018Z,48.49
2023-12-11T11:52:04.230Z,48.66
2023-12-11T11:55:03.694Z,48.51
2023-12-11T11:57:03.673Z,48.46
2023-12-11T11:59:03.865Z,48.27
2023-12-11T12:02:03.725Z,48.34
2023-12-11T12:05:03.686Z,47.96
2023-12-11T12:08:03.665Z,47.97
2023-12-11T12:11:03.655Z,47.83
2023-12-11T12:13:04.490Z,47.3
2023-12-11T12:16:03.835Z,48
2023-12-11T12:19:03.799Z,47.33
2023-12-11T12:21:04.175Z,47.38
2023-12-11T12:24:03.625Z,46.31
2023-12-11T12:26:04.423Z,46.03
2023-12-11T12:29:03.612Z,45.84
2023-12-11T12:31:04.084Z,45.32
2023-12-11T12:33:04.327Z,45.41
2023-12-11T12:36:04.308Z,45.7
2023-12-11T12:39:03.611Z,44.99
2023-12-11T12:42:03.659Z,44.34
2023-12-11T12:45:03.760Z,43.93
2023-12-11T12:48:03.888Z,43.81
2023-12-11T12:50:03.824Z,43.85
2023-12-11T12:53:03.672Z,43.75
2023-12-11T12:55:04.310Z,44.09
2023-12-11T12:58:03.647Z,45.4
2023-12-11T13:00:03.644Z,45.65
2023-12-11T13:03:04.115Z,45.87
2023-12-11T13:06:04.357Z,44.73
2023-12-11T13:09:04.555Z,45.5
2023-12-11T13:12:04.287Z,45.72
2023-12-11T13:14:04.471Z,46.33
2023-12-11T13:17:03.632Z,46.36
2023-12-11T13:19:04.085Z,46.23
2023-12-11T13:21:04.149Z,46.72
2023-12-11T13:24:05.633Z,46.69
2023-12-11T13:27:05.483Z,47.81
2023-12-11T13:30:07.406Z,49.1
2023-12-11T13:32:05.825Z,49.32
2023-12-11T13:35:05.505Z,49.96
2023-12-11T13:37:05.531Z,49.18
2023-12-11T13:39:05.441Z,48.68
2023-12-11T13:42:05.427Z,49.45
2023-12-11T13:45:05.436Z,49.21
2023-12-11T13:47:05.994Z,48.14
2023-12-11T13:50:05.594Z,46.64
2023-12-11T13:54:05.586Z,47.47
2023-12-11T13:57:05.490Z,47.22
2023-12-11T14:00:05.509Z,48.14
2023-12-11T14:02:05.987Z,47.57
2023-12-11T14:04:06.013Z,47.75
2023-12-11T14:07:05.947Z,47.81
2023-12-11T14:10:05.439Z,47.16
2023-12-11T14:12:05.473Z,48.99
2023-12-11T14:14:05.503Z,48.31
2023-12-11T14:16:05.943Z,47.96
2023-12-11T14:19:05.548Z,47.48
2023-12-11T14:21:06.069Z,47.52
2023-12-11T14:24:05.431Z,47.34
2023-12-11T14:26:06.202Z,47.1
2023-12-11T14:29:05.631Z,47.15
2023-12-11T14:33:05.959Z,47.79
2023-12-11T14:35:06.198Z,48.33
2023-12-11T14:38:05.848Z,48.06
2023-12-11T14:40:05.658Z,48.57
2023-12-11T14:43:05.463Z,48.58
2023-12-11T14:45:05.636Z,48.3
2023-12-11T14:48:05.694Z,48.4
2023-12-11T14:51:05.670Z,47.72
2023-12-11T14:54:06.301Z,48.26
2023-12-11T14:57:05.505Z,48.58
2023-12-11T14:59:05.630Z,47.89
2023-12-11T15:02:04.572Z,48.14
2023-12-11T15:04:05.571Z,48.09
2023-12-11T15:07:05.582Z,48.57
2023-12-11T15:09:06.101Z,48.67
2023-12-11T15:12:05.435Z,48.82
2023-12-11T15:14:05.428Z,48.25
2023-12-11T15:16:05.600Z,48.65
2023-12-11T15:18:05.620Z,48.61
2023-12-11T15:21:05.536Z,48.34
2023-12-11T15:24:05.960Z,48.15
2023-12-11T15:27:06.318Z,48.85
2023-12-11T15:30:05.957Z,48.82
2023-12-11T15:33:05.492Z,49.36
2023-12-11T15:35:05.658Z,49.14
2023-12-11T15:38:05.924Z,49.26
2023-12-11T15:41:05.756Z,49.13
2023-12-11T15:43:06.400Z,48.88
2023-12-11T15:46:05.485Z,49.18
2023-12-11T15:48:05.720Z,49.16
2023-12-11T15:51:05.996Z,49.2
2023-12-11T15:54:06.119Z,50.05
2023-12-11T15:57:05.440Z,48.94
2023-12-11T16:00:05.558Z,49.39
2023-12-11T16:03:05.759Z,48.75
2023-12-11T16:06:05.582Z,49.68
2023-12-11T16:08:05.518Z,49.29
2023-12-11T16:11:05.480Z,49.49
2023-12-11T16:13:05.493Z,48.96
2023-12-11T16:16:06.274Z,49.41
2023-12-11T16:19:05.551Z,48.87
2023-12-11T16:21:05.447Z,48.8
2023-12-11T16:23:05.568Z,49.36
2023-12-11T16:26:05.885Z,49.13
2023-12-11T16:28:05.611Z,49.07
2023-12-11T16:30:05.892Z,49.23
2023-12-11T16:33:05.501Z,49.42
2023-12-11T16:35:05.700Z,49.57
2023-12-11T16:37:06.408Z,49.64
2023-12-11T16:40:05.514Z,50.13
2023-12-11T16:42:05.462Z,50.33
2023-12-11T16:44:06.153Z,50.34
2023-12-11T16:46:06.248Z,50.9
2023-12-11T16:49:06.296Z,50.41
2023-12-11T16:51:06.366Z,50.86
2023-12-11T16:54:05.503Z,51.19
2023-12-11T16:57:06.095Z,51.28
2023-12-11T16:59:06.188Z,52.14
2023-12-11T17:02:05.549Z,51.73
2023-12-11T17:04:06.297Z,51.7
2023-12-11T17:07:05.575Z,52.06
2023-12-11T17:10:05.563Z,51.8
2023-12-11T17:12:05.492Z,51.66
2023-12-11T17:14:05.479Z,52.01
2023-12-11T17:17:06.127Z,52.2
2023-12-11T17:20:05.622Z,52.43
2023-12-11T17:22:06.169Z,51.91
2023-12-11T17:25:05.592Z,52.25
2023-12-11T17:27:06.094Z,52.48
2023-12-11T17:30:05.716Z,51.87
2023-12-11T17:32:05.971Z,52.2
2023-12-11T17:35:05.797Z,52.34
2023-12-11T17:38:05.812Z,52.34
2023-12-11T17:41:05.482Z,52.21
2023-12-11T17:44:05.798Z,52
2023-12-11T17:47:05.544Z,52.21
2023-12-11T17:50:05.910Z,52.49
2023-12-11T17:53:05.492Z,53.02
2023-12-11T17:55:06.024Z,52.95
2023-12-11T17:57:06.252Z,52.85
2023-12-11T18:00:05.453Z,53.47
2023-12-11T18:02:05.512Z,53.32
2023-12-11T18:04:06.034Z,53.4
2023-12-11T18:07:05.559Z,53.53
2023-12-11T18:10:05.447Z,53.61
2023-12-11T18:12:05.948Z,53.75
2023-12-11T18:15:05.464Z,53.98
2023-12-11T18:17:05.444Z,54.31
2023-12-11T18:19:06.030Z,54.22
2023-12-11T18:22:07.645Z,54.18
2023-12-11T18:24:05.499Z,54.25
2023-12-11T18:27:05.527Z,54.2
2023-12-11T18:29:05.674Z,54.18
2023-12-11T18:31:05.807Z,54.2
2023-12-11T18:33:05.987Z,54.45
2023-12-11T18:36:05.445Z,54.41
2023-12-11T18:39:05.509Z,54.49
2023-12-11T18:41:05.978Z,54.32
2023-12-11T18:44:05.830Z,54.88
2023-12-11T18:47:05.472Z,54.58
2023-12-11T18:50:05.519Z,54.41
2023-12-11T18:52:06.024Z,54.21
2023-12-11T18:55:06.116Z,54.57
2023-12-11T18:58:05.438Z,54.57
2023-12-11T19:00:05.471Z,54.79
2023-12-11T19:02:06.062Z,54.52
2023-12-11T19:05:05.554Z,54.72
2023-12-11T19:07:06.197Z,54.73
2023-12-11T19:10:06.129Z,54.82
2023-12-11T19:13:05.515Z,55.02
2023-12-11T19:15:06.255Z,54.75
2023-12-11T19:18:05.497Z,54.97
2023-12-11T19:20:05.819Z,54.78
2023-12-11T19:23:05.719Z,54.88
2023-12-11T19:26:05.501Z,54.85
2023-12-11T19:29:05.482Z,54.92
2023-12-11T19:31:05.537Z,54.95
2023-12-11T19:33:06.460Z,54.82
2023-12-11T19:36:05.472Z,54.53
2023-12-11T19:38:06.007Z,54.68
2023-12-11T19:40:06.237Z,54.53
2023-12-11T19:43:05.605Z,54.49
2023-12-11T19:46:05.557Z,54.35
2023-12-11T19:48:05.598Z,54.25
2023-12-11T19:50:05.476Z,54.34
2023-12-11T19:52:06.007Z,54.07
2023-12-11T19:55:05.501Z,54.31
2023-12-11T19:58:05.532Z,54.16
2023-12-11T20:00:05.478Z,54.41
2023-12-11T20:03:05.459Z,54.46
2023-12-11T20:05:06.329Z,54.92
2023-12-11T20:08:05.469Z,55.2
2023-12-11T20:11:06.097Z,55.41
2023-12-11T20:14:06.321Z,55.46
2023-12-11T20:17:05.986Z,55.54
2023-12-11T20:20:06.298Z,55.55
2023-12-11T20:23:05.509Z,55.52
2023-12-11T20:25:06.123Z,55.93
2023-12-11T20:28:05.455Z,56.12
2023-12-11T20:30:05.908Z,56.1
2023-12-11T20:33:05.690Z,56.01
2023-12-11T20:36:05.805Z,56.17
2023-12-11T20:39:05.853Z,56.09
2023-12-11T20:41:06.264Z,56.28
2023-12-11T20:44:05.448Z,56.36
2023-12-11T20:46:05.867Z,56.74
2023-12-11T20:48:06.144Z,56.57
2023-12-11T20:50:06.495Z,56.74
2023-12-11T20:53:05.540Z,56.82
2023-12-11T20:55:06.012Z,56.64
2023-12-11T20:57:06.075Z,56.76
2023-12-11T21:00:06.241Z,56.37
2023-12-11T21:03:05.482Z,56.62
2023-12-11T21:05:06.151Z,56.59
2023-12-11T21:08:06.160Z,56.34
2023-12-11T21:11:05.534Z,56.39
2023-12-11T21:14:05.786Z,56.75
2023-12-11T21:16:06.166Z,56.94
2023-12-11T21:19:06.175Z,56.64
2023-12-11T21:22:05.714Z,56.5
2023-12-11T21:25:05.521Z,57.01
2023-12-11T21:27:05.613Z,56.9
2023-12-11T21:29:05.997Z,56.52
2023-12-11T21:32:05.484Z,56.69
2023-12-11T21:34:05.514Z,56.79
2023-12-11T21:37:06.248Z,56.79
2023-12-11T21:40:05.485Z,57.13
2023-12-11T21:42:05.464Z,56.74
2023-12-11T21:45:05.571Z,56.86
2023-12-11T21:48:05.595Z,56.93
2023-12-11T21:50:05.645Z,57.16
2023-12-11T21:52:06.485Z,57.03
2023-12-11T21:55:05.580Z,56.77
2023-12-11T21:58:05.526Z,56.62
2023-12-11T22:01:06.380Z,56.77
2023-12-11T22:04:05.823Z,56.97
2023-12-11T22:07:06.219Z,56.63
2023-12-11T22:10:06.088Z,56.69
2023-12-11T22:13:05.969Z,56.61
2023-12-11T22:16:05.815Z,56.3
2023-12-11T22:19:05.935Z,56.79
2023-12-11T22:21:05.934Z,56.96
2023-12-11T22:24:05.480Z,57.04
2023-12-11T22:26:05.514Z,56.86
2023-12-11T22:28:05.517Z,56.91
2023-12-11T22:31:05.523Z,56.78
2023-12-11T22:33:06.307Z,56.95
2023-12-11T22:36:06.385Z,57.11
2023-12-11T22:39:05.463Z,56.75
2023-12-11T22:41:05.888Z,57.15
2023-12-11T22:44:05.447Z,57.22
2023-12-11T22:46:06.314Z,57.65
2023-12-11T22:49:05.534Z,57.53
2023-12-11T22:51:06.328Z,57.79
2023-12-11T22:54:06.056Z,57.93
2023-12-11T22:57:05.471Z,58.05
2023-12-11T23:00:05.526Z,58.22
2023-12-11T23:03:05.504Z,57.93
2023-12-11T23:06:05.796Z,57.72
2023-12-11T23:08:05.770Z,58.46
2023-12-11T23:11:05.447Z,58.25
2023-12-11T23:13:05.487Z,57.9
2023-12-11T23:16:04.617Z,57.45
2023-12-11T23:18:06.586Z,57.59
2023-12-11T23:21:05.595Z,58.01
2023-12-11T23:24:05.494Z,57.83
2023-12-11T23:26:06.132Z,57.93
2023-12-11T23:28:06.089Z,57.8
2023-12-11T23:31:05.473Z,57.58
2023-12-11T23:33:05.469Z,57.77
2023-12-11T23:36:05.472Z,58.07
2023-12-11T23:38:05.458Z,58.26
2023-12-11T23:40:05.672Z,57.93
2023-12-11T23:43:05.486Z,57.74
2023-12-11T23:46:05.476Z,57.67
2023-12-11T23:48:06.165Z,57.6
2023-12-11T23:51:05.741Z,57.29
2023-12-11T23:54:05.470Z,57.37
2023-12-11T23:56:05.478Z,57.06
2023-12-11T23:58:05.569Z,56.77
